AirNav   Pilot Hours Calculator
 
 1714 users online  

WA81 Evergreen North-South Airpark
Vancouver, Washington, USA

GOING TO VANCOUVER?


FAA INFORMATION EFFECTIVE 04 NOVEMBER 2021

Location

FAA Identifier: WA81
Lat/Long: 45-37-52.0000N 122-31-51.0000W
45-37.866667N 122-31.850000W
45.6311111,-122.5308333
(estimated)
Elevation: 312 ft. / 95 m (estimated)
From city: 6 miles ENE of VANCOUVER, WA
Time zone: UTC -7 (UTC -8 during Standard Time)
Zip code: 98684

Airport Operations

Airport use: Private use. Permission required prior to landing
Activation date: 09/2014
Control tower: no
ARTCC: SEATTLE CENTER
FSS: SEATTLE FLIGHT SERVICE STATION
Attendance: UNATTND
Wind indicator: yes
Segmented circle: no

Airport Communications

UNICOM: 122.95
WX ASOS at PDX (4 nm SW): PHONE (503) 493-7687
WX ASOS at VUO (5 nm W): 135.125 (360-696-1280)
WX ASOS at TTD (7 nm SE): 135.625 (503-492-2887)
WX ASOS at SPB (16 nm NW): 135.875 (503-543-6401)
WX ASOS at HIO (18 nm W): PHONE 503-615-4314

Nearby radio navigation aids

VOR radial/distance  VOR name  Freq  Var
BTGr139/7.4BATTLE GROUND VORTAC116.6021E
UBGr027/25.1NEWBERG VOR/DME117.4021E

 
NDB name  Hdg/Dist  Freq  Var  ID
BANKS074/21.635616EPND .--. -. -..

Airport Services

Runway Information

Runway 18/36

Dimensions: 1700 x 75 ft. / 518 x 23 m
Surface: turf, in good condition
RUNWAY 18  RUNWAY 36
Traffic pattern: leftleft

Airport Ownership and Management from official FAA records

Ownership: Privately-owned
Owner: NORTH/SOUTH AIRPARK ASSOCIATION
1209 N.E. 139TH AVENUE
VANCOUVER, WA 98684
Phone 360-254-5146
Manager: R. E. BURTON
1209 N.E. 139TH AVENUE
VANCOUVER, WA 98684
Phone 360-254-5146

Airport Operational Statistics

Aircraft based on the field: 15
Single engine airplanes: 15
    
Aircraft operations: 150/year
100% local general aviation

Additional Remarks

FOR CD CTC PORTLAND APCH AT 503-493-7545.

Instrument Procedures

There are no published instrument procedures at WA81.

Some nearby airports with instrument procedures:

KPDX - Portland International Airport (4 nm SW)
KVUO - Pearson Field Airport (5 nm W)
KTTD - Portland-Troutdale Airport (7 nm SE)
KSPB - Scappoose Airport (16 nm NW)
KHIO - Portland-Hillsboro Airport (18 nm W)
 
Loc | Ops | Rwys | IFR | FBO | Links
Com | Nav | Svcs | Stats | Notes
Aerial photo
No photo
 
Airport distance calculator
Flying to Evergreen North-South Airpark? Find the distance to fly.

From to WA81

Sunrise and sunset
Times for 30-Nov-2021
 Local
(UTC-8)
 Zulu
(UTC)
Morning civil twilight06:5714:57
Sunrise07:3015:30
Sunset16:2700:27
Evening civil twilight17:0101:01

Current date and time
Zulu (UTC)  30-Nov-2021 19:45:28
Local (UTC-8)  30-Nov-2021 11:45:28
 
METAR
KPDX 
4nm SW 
301853Z 18005KT 10SM FEW012 OVC065 13/10 A3033 RMK AO2 RAB11E45 SLP269 P0001 T01330100 $
KVUO 
5nm W 
301853Z AUTO 13004KT OVC065 13/11 A3033 RMK AO2 RAB09E32 SLP269 P0001 T01280106 $
KTTD 
7nm SE 
301853Z 00000KT 10SM FEW017 OVC065 14/10 A3032 RMK AO2 RAB26E48 SLP267 P0001 T01390100
KSPB 
16nm NW 
301853Z AUTO 17004KT 10SM BKN060 OVC080 13/11 A3031 RMK AO2 RAB09E19B42E51 SLP263 P0000 T01330111
KHIO 
18nm W 
301853Z 00000KT 10SM BKN008 BKN030 OVC110 12/11 A3032 RMK AO2 RAB01E25 SLP267 P0001 T01220111
TAF
KPDX 
4nm SW 
301732Z 3018/0118 20007KT P6SM -RA SCT020 OVC080 TEMPO 3018/3021 -RA BKN020 OVC050 FM302100 18005KT P6SM SCT025 OVC045 FM010800 12005KT P6SM BKN020 FM011600 15004KT P6SM SCT023 BKN250
KTTD 
7nm SE 
301732Z 3018/0118 VRB03KT P6SM -RA SCT020 OVC080 TEMPO 3018/3021 -RA BKN020 OVC050 FM302100 23005KT P6SM SCT025 OVC045 FM010800 11005KT P6SM BKN020 FM011600 10004KT P6SM SCT023 BKN250
KHIO 
18nm W 
301732Z 3018/0118 18005KT P6SM -RA SCT010 BKN040 OVC100 FM302000 18004KT P6SM SCT010 BKN020 OVC045 FM010200 16004KT 6SM BR SCT005 OVC030 FM010700 00000KT 3/4SM BR BKN003 OVC020
NOTAMs
Click for the latest NOTAMs
NOTAMs are issued by the DoD/FAA and will open in a separate window not controlled by AirNav.

 

 
 

Would you like to see your business listed on this page?

 If your business provides an interesting product or service to pilots, flight crews, aircraft, or users of the Evergreen North-South Airpark, you should consider listing it here.  To start the listing process, click on the button below
 
Add a business
 

Other Pages about Evergreen North-South Airpark

Update a link
 
Copyright © AirNav, LLC. All rights reserved. Privacy Policy  Contact